Airfield :
LOGIN :

Register | Disclaimer

   EN    FR    IT 

 










Legend :    VFR   Marginal VFR   IFR   Intensive IFR   Very Intensive IFR
Visi :
Ceiling :
>= 8 km
>= 3000ft
5 to 8 km
1000 to 3000 ft
1500m to 5 km
500 to 1000 ft
800 to 1500m
200 to 500 ft
< 800m
< 200 ft
Symbols :   Thunderstorms  Fog  Heavy snow  Heavy precipitations  Wind > 20 kt
SIGMETs :     Misc.  Thunderstorms  Icing  Turbulence  Mountain Waves  Volcanic Ashes






- Airport Elevation : 160 ft
- IATA code : LRT


LFRH - Lorient Lann Bihoue

CURRENT METAR :
  • 280900Z AUTO 25016KT 3000 BR OVC002 12/11 Q1012 TEMPO 0800 FG VV/// BECMG 25015G28KT

EXPIRED METARs :
  • 280830Z AUTO 26013KT 2200 BR OVC002 11/11 Q1012 TEMPO 0800 FG VV/// BECMG 25015G28KT
  • 280800Z AUTO 26016KT 2700 -RADZ BR OVC003 12/11 Q1012 TEMPO 0800 FG VV/// BECMG 25015G28KT
  • 280730Z AUTO 26016KT 2400 DZ BR VV/// 12/11 Q1012 TEMPO 0800 FG BECMG 25015G28KT
  • 280700Z AUTO 26014KT 3000 DZ BR OVC002 12/11 Q1012 TEMPO 0800 FG VV/// BECMG 25015G28KT
  • 280630Z AUTO 26015KT 4100 -DZ BR OVC002 12/11 Q1011 TEMPO 0800 FG VV/// BECMG 25015G28KT

TAF AMD TAF LFRH
Valid from the 28 at 06:00 until the 29 at 06:00 UTC


280537Z 2806/2906 25015G28KT 5000 BKN003 OVC005
PROB30
TEMPO 2806/2819 0800 FG VV///
PROB40
TEMPO 2808/2812 OVC008
TEMPO 2819/2821 1500 RA BKN001 OVC003
BECMG 2821/2823 9999 BKN020



MET'MAP, your aeronautical weather chart ! - Copyright ORBIFLY December 2007 - Disclaimer

ORBIFLY MET'MAP TEAM :

Programming & Development : Alexandra Zaïnal
Concept & original design : Baudouin d'Aumeries
Assistance for programming : Marc-Olivier Méhu
Technical & hardware support : Manuel Goepfert

Contact : metmap@orbifly.com




SOURCES & CREDITS :

   NOAA